PWSweather.com
Personal Weather Stations
Station Observations
DW6359
Southwest Cambria, Cambria, WI 53923

Southwest CambriaCambria, WI 53923

Lat: 43.541194, Lon: -89.11275

Elevation: 945

Station Type: Davis Vantage Pro2

http://home.centurytel.net/weathercambria/wxcambria.html

High Low Average
Temperature 35.9°F2.2°C 23.4°F-4.8°C 31.4°F-0.3°C
Dew Point 33.0°F0.6°C 18.7°F-7.4°C 28.2°F-2.1°C
Winds 14.0 mph 22.5 kmh Calm Calm 4.0 mph SW6.4 kmh SW
Wind Gusts 21.0 mph33.8 kmh -- 2.0 mph3.2 kmh
Humidity 98% 81% 88%
Pressure 30.33 in1027.1 mb 29.85 in1010.8 mb -
Precipitation 0.35 in8.9 mm - -
Hour Temp Dew Point Humidity Winds Wind Gusts Pressure Precip Precip Rate Daily Precip Total
12:00 AM 33.3°F0.7°C 30.4°F-0.9°C 89% Calm Calm -- 29.87 in1011.5 mb 0.00 in0.0 mm 0.00 in0.0 mm 0.07 in1.8 mm
12:05 AM 33.3°F0.7°C 30.4°F-0.9°C 89% Calm Calm -- 29.87 in1011.5 mb 0.01 in0.3 mm 0.12 in3.0 mm 0.08 in2.0 mm
12:10 AM 33.3°F0.7°C 30.4°F-0.9°C 89% Calm Calm -- 29.87 in1011.5 mb 0.01 in0.3 mm 0.00 in0.0 mm 0.08 in2.0 mm
12:15 AM 33.3°F0.7°C 30.4°F-0.9°C 89% Calm Calm -- 29.87 in1011.5 mb 0.01 in0.3 mm 0.00 in0.0 mm 0.08 in2.0 mm
12:20 AM 33.3°F0.7°C 30.4°F-0.9°C 89% Calm Calm -- 29.87 in1011.5 mb 0.01 in0.3 mm 0.00 in0.0 mm 0.08 in2.0 mm
12:25 AM 33.2°F0.7°C 30.3°F-0.9°C 89% Calm Calm -- 29.88 in1011.9 mb 0.01 in0.3 mm 0.00 in0.0 mm 0.08 in2.0 mm
12:30 AM 33.2°F0.7°C 30.3°F-0.9°C 89% Calm Calm -- 29.87 in1011.5 mb 0.01 in0.3 mm 0.00 in0.0 mm 0.08 in2.0 mm
12:35 AM 33.1°F0.6°C 30.2°F-1.0°C 89% Calm Calm -- 29.87 in1011.5 mb 0.01 in0.3 mm 0.00 in0.0 mm 0.08 in2.0 mm
12:40 AM 33.0°F0.6°C 30.1°F-1.1°C 89% Calm Calm -- 29.87 in1011.5 mb 0.01 in0.3 mm 0.00 in0.0 mm 0.08 in2.0 mm
12:45 AM 32.9°F0.5°C 30.0°F-1.1°C 89% Calm Calm -- 29.87 in1011.5 mb 0.01 in0.3 mm 0.00 in0.0 mm 0.08 in2.0 mm
12:50 AM 32.9°F0.5°C 30.0°F-1.1°C 89% Calm Calm -- 29.87 in1011.5 mb 0.01 in0.3 mm 0.00 in0.0 mm 0.08 in2.0 mm
12:55 AM 32.8°F0.4°C 29.9°F-1.2°C 89% Calm Calm -- 29.87 in1011.5 mb 0.01 in0.3 mm 0.00 in0.0 mm 0.08 in2.0 mm
01:00 AM 32.8°F0.4°C 29.9°F-1.2°C 89% Calm Calm -- 29.87 in1011.5 mb 0.01 in0.3 mm 0.00 in0.0 mm 0.01 in0.3 mm
01:05 AM 32.8°F0.4°C 29.9°F-1.2°C 89% Calm Calm -- 29.87 in1011.5 mb 0.00 in0.0 mm 0.00 in0.0 mm 0.01 in0.3 mm
01:10 AM 32.8°F0.4°C 29.9°F-1.2°C 89% Calm Calm -- 29.87 in1011.5 mb 0.00 in0.0 mm 0.00 in0.0 mm 0.01 in0.3 mm
01:15 AM 32.8°F0.4°C 29.9°F-1.2°C 89% Calm Calm -- 29.87 in1011.5 mb 0.00 in0.0 mm 0.00 in0.0 mm 0.01 in0.3 mm
01:20 AM 32.8°F0.4°C 29.9°F-1.2°C 89% Calm Calm -- 29.87 in1011.5 mb 0.00 in0.0 mm 0.00 in0.0 mm 0.01 in0.3 mm
01:25 AM 32.8°F0.4°C 29.9°F-1.2°C 89% 1.0 mph NE1.6 kmh NE -- 29.87 in1011.5 mb 0.00 in0.0 mm 0.00 in0.0 mm 0.01 in0.3 mm
01:30 AM 32.6°F0.3°C 29.7°F-1.3°C 89% Calm Calm -- 29.87 in1011.5 mb 0.00 in0.0 mm 0.00 in0.0 mm 0.01 in0.3 mm
01:35 AM 32.5°F0.3°C 29.6°F-1.3°C 89% Calm Calm -- 29.87 in1011.5 mb 0.00 in0.0 mm 0.00 in0.0 mm 0.01 in0.3 mm
01:40 AM 32.5°F0.3°C 29.6°F-1.3°C 89% Calm Calm -- 29.87 in1011.5 mb 0.00 in0.0 mm 0.00 in0.0 mm 0.01 in0.3 mm
01:45 AM 32.4°F0.2°C 29.5°F-1.4°C 89% Calm Calm -- 29.86 in1011.2 mb 0.00 in0.0 mm 0.00 in0.0 mm 0.01 in0.3 mm
01:50 AM 32.4°F0.2°C 29.5°F-1.4°C 89% Calm Calm -- 29.87 in1011.5 mb 0.00 in0.0 mm 0.00 in0.0 mm 0.01 in0.3 mm
01:55 AM 32.3°F0.2°C 29.4°F-1.4°C 89% Calm Calm -- 29.87 in1011.5 mb 0.00 in0.0 mm 0.00 in0.0 mm 0.01 in0.3 mm
02:00 AM 32.3°F0.2°C 29.4°F-1.4°C 89% Calm Calm -- 29.87 in1011.5 mb 0.00 in0.0 mm 0.00 in0.0 mm 0.01 in0.3 mm
02:05 AM 32.3°F0.2°C 29.4°F-1.4°C 89% Calm Calm -- 29.87 in1011.5 mb 0.00 in0.0 mm 0.00 in0.0 mm 0.01 in0.3 mm
02:10 AM 32.3°F0.2°C 29.4°F-1.4°C 89% Calm Calm -- 29.87 in1011.5 mb 0.00 in0.0 mm 0.00 in0.0 mm 0.01 in0.3 mm
02:15 AM 32.2°F0.1°C 29.3°F-1.5°C 89% Calm Calm -- 29.87 in1011.5 mb 0.00 in0.0 mm 0.00 in0.0 mm 0.01 in0.3 mm
02:20 AM 32.2°F0.1°C 29.3°F-1.5°C 89% Calm Calm -- 29.87 in1011.5 mb 0.00 in0.0 mm 0.00 in0.0 mm 0.01 in0.3 mm
02:25 AM 32.1°F0.1°C 29.2°F-1.6°C 89% Calm Calm -- 29.88 in1011.9 mb 0.00 in0.0 mm 0.00 in0.0 mm 0.01 in0.3 mm
02:30 AM 32.1°F0.1°C 29.2°F-1.6°C 89% Calm Calm -- 29.88 in1011.9 mb 0.00 in0.0 mm 0.00 in0.0 mm 0.01 in0.3 mm
02:35 AM 32.0°F0.0°C 30.7°F-0.7°C 95% Calm Calm -- 29.87 in1011.5 mb 0.00 in0.0 mm 0.00 in0.0 mm 0.01 in0.3 mm
02:40 AM 31.9°F-0.1°C 29.0°F-1.7°C 89% Calm Calm -- 29.86 in1011.2 mb 0.00 in0.0 mm 0.00 in0.0 mm 0.01 in0.3 mm
02:45 AM 31.9°F-0.1°C 29.0°F-1.7°C 89% Calm Calm -- 29.86 in1011.2 mb 0.00 in0.0 mm 0.00 in0.0 mm 0.01 in0.3 mm
02:50 AM 31.8°F-0.1°C 28.9°F-1.7°C 89% Calm Calm -- 29.86 in1011.2 mb 0.00 in0.0 mm 0.00 in0.0 mm 0.01 in0.3 mm
02:55 AM 31.7°F-0.2°C 28.8°F-1.8°C 89% Calm Calm -- 29.86 in1011.2 mb 0.00 in0.0 mm 0.00 in0.0 mm 0.01 in0.3 mm
03:00 AM 31.7°F-0.2°C 28.8°F-1.8°C 89% Calm Calm 1.0 mph1.6 kmh 29.87 in1011.5 mb 0.00 in0.0 mm 0.00 in0.0 mm 0.01 in0.3 mm
03:05 AM 31.6°F-0.2°C 28.7°F-1.8°C 89% Calm Calm 1.0 mph1.6 kmh 29.87 in1011.5 mb 0.00 in0.0 mm 0.00 in0.0 mm 0.01 in0.3 mm
03:10 AM 31.6°F-0.2°C 28.7°F-1.8°C 89% Calm Calm -- 29.87 in1011.5 mb 0.00 in0.0 mm 0.00 in0.0 mm 0.01 in0.3 mm
03:15 AM 31.6°F-0.2°C 28.7°F-1.8°C 89% Calm Calm -- 29.87 in1011.5 mb 0.00 in0.0 mm 0.00 in0.0 mm 0.01 in0.3 mm
03:20 AM 31.5°F-0.3°C 28.6°F-1.9°C 89% Calm Calm -- 29.87 in1011.5 mb 0.00 in0.0 mm 0.00 in0.0 mm 0.01 in0.3 mm
03:25 AM 31.5°F-0.3°C 28.6°F-1.9°C 89% Calm Calm -- 29.86 in1011.2 mb 0.00 in0.0 mm 0.00 in0.0 mm 0.01 in0.3 mm
03:30 AM 31.4°F-0.3°C 28.5°F-1.9°C 89% Calm Calm -- 29.87 in1011.5 mb 0.00 in0.0 mm 0.00 in0.0 mm 0.01 in0.3 mm
03:35 AM 31.3°F-0.4°C 28.4°F-2.0°C 89% Calm Calm -- 29.87 in1011.5 mb 0.00 in0.0 mm 0.00 in0.0 mm 0.01 in0.3 mm
03:40 AM 31.2°F-0.4°C 28.3°F-2.1°C 89% Calm Calm -- 29.86 in1011.2 mb 0.00 in0.0 mm 0.00 in0.0 mm 0.01 in0.3 mm
03:45 AM 31.1°F-0.5°C 28.2°F-2.1°C 89% Calm Calm -- 29.86 in1011.2 mb 0.00 in0.0 mm 0.00 in0.0 mm 0.01 in0.3 mm
03:50 AM 31.1°F-0.5°C 28.2°F-2.1°C 89% Calm Calm 1.0 mph1.6 kmh 29.87 in1011.5 mb 0.00 in0.0 mm 0.00 in0.0 mm 0.01 in0.3 mm
03:55 AM 31.1°F-0.5°C 28.2°F-2.1°C 89% Calm Calm 1.0 mph1.6 kmh 29.87 in1011.5 mb 0.00 in0.0 mm 0.00 in0.0 mm 0.01 in0.3 mm
04:00 AM 31.1°F-0.5°C 28.2°F-2.1°C 89% Calm Calm -- 29.86 in1011.2 mb 0.00 in0.0 mm 0.00 in0.0 mm 0.01 in0.3 mm
04:05 AM 31.1°F-0.5°C 28.2°F-2.1°C 89% Calm Calm -- 29.86 in1011.2 mb 0.00 in0.0 mm 0.00 in0.0 mm 0.01 in0.3 mm
04:10 AM 31.0°F-0.6°C 28.1°F-2.2°C 89% Calm Calm -- 29.87 in1011.5 mb 0.00 in0.0 mm 0.00 in0.0 mm 0.01 in0.3 mm
04:15 AM 31.0°F-0.6°C 28.1°F-2.2°C 89% Calm Calm -- 29.87 in1011.5 mb 0.00 in0.0 mm 0.00 in0.0 mm 0.01 in0.3 mm
04:20 AM 30.9°F-0.6°C 28.0°F-2.2°C 89% Calm Calm -- 29.87 in1011.5 mb 0.00 in0.0 mm 0.00 in0.0 mm 0.01 in0.3 mm
04:25 AM 30.8°F-0.7°C 27.9°F-2.3°C 89% Calm Calm -- 29.86 in1011.2 mb 0.00 in0.0 mm 0.00 in0.0 mm 0.01 in0.3 mm
04:30 AM 30.8°F-0.7°C 27.9°F-2.3°C 89% Calm Calm -- 29.86 in1011.2 mb 0.00 in0.0 mm 0.00 in0.0 mm 0.01 in0.3 mm
04:35 AM 30.8°F-0.7°C 27.9°F-2.3°C 89% Calm Calm -- 29.86 in1011.2 mb 0.00 in0.0 mm 0.00 in0.0 mm 0.01 in0.3 mm
04:40 AM 30.8°F-0.7°C 27.9°F-2.3°C 89% Calm Calm 1.0 mph1.6 kmh 29.86 in1011.2 mb 0.00 in0.0 mm 0.00 in0.0 mm 0.01 in0.3 mm
04:45 AM 30.7°F-0.7°C 27.8°F-2.3°C 89% Calm Calm 1.0 mph1.6 kmh 29.85 in1010.8 mb 0.00 in0.0 mm 0.00 in0.0 mm 0.01 in0.3 mm
04:50 AM 30.7°F-0.7°C 27.8°F-2.3°C 89% Calm Calm -- 29.85 in1010.8 mb 0.00 in0.0 mm 0.00 in0.0 mm 0.01 in0.3 mm
04:55 AM 30.6°F-0.8°C 27.8°F-2.3°C 89% Calm Calm -- 29.85 in1010.8 mb 0.00 in0.0 mm 0.00 in0.0 mm 0.01 in0.3 mm
05:00 AM 30.6°F-0.8°C 27.8°F-2.3°C 89% Calm Calm -- 29.85 in1010.8 mb 0.00 in0.0 mm 0.00 in0.0 mm 0.01 in0.3 mm
05:05 AM 30.6°F-0.8°C 27.8°F-2.3°C 89% Calm Calm -- 29.86 in1011.2 mb 0.00 in0.0 mm 0.00 in0.0 mm 0.01 in0.3 mm
05:10 AM 30.6°F-0.8°C 27.8°F-2.3°C 89% Calm Calm -- 29.85 in1010.8 mb 0.00 in0.0 mm 0.00 in0.0 mm 0.01 in0.3 mm
05:15 AM 30.5°F-0.8°C 27.7°F-2.4°C 89% Calm Calm -- 29.85 in1010.8 mb 0.00 in0.0 mm 0.00 in0.0 mm 0.01 in0.3 mm
05:20 AM 30.5°F-0.8°C 27.7°F-2.4°C 89% Calm Calm -- 29.85 in1010.8 mb 0.00 in0.0 mm 0.00 in0.0 mm 0.01 in0.3 mm
05:25 AM 30.5°F-0.8°C 27.7°F-2.4°C 89% Calm Calm -- 29.85 in1010.8 mb 0.00 in0.0 mm 0.00 in0.0 mm 0.01 in0.3 mm
05:30 AM 30.5°F-0.8°C 27.7°F-2.4°C 89% Calm Calm -- 29.86 in1011.2 mb 0.00 in0.0 mm 0.00 in0.0 mm 0.01 in0.3 mm
05:35 AM 30.5°F-0.8°C 27.7°F-2.4°C 89% Calm Calm -- 29.86 in1011.2 mb 0.00 in0.0 mm 0.00 in0.0 mm 0.01 in0.3 mm
05:40 AM 30.5°F-0.8°C 27.7°F-2.4°C 89% Calm Calm -- 29.87 in1011.5 mb 0.00 in0.0 mm 0.00 in0.0 mm 0.01 in0.3 mm
05:45 AM 30.5°F-0.8°C 27.7°F-2.4°C 89% Calm Calm -- 29.87 in1011.5 mb 0.00 in0.0 mm 0.00 in0.0 mm 0.01 in0.3 mm
05:50 AM 30.6°F-0.8°C 27.8°F-2.3°C 89% Calm Calm -- 29.85 in1010.8 mb 0.00 in0.0 mm 0.00 in0.0 mm 0.01 in0.3 mm
05:55 AM 30.7°F-0.7°C 27.8°F-2.3°C 89% Calm Calm -- 29.86 in1011.2 mb 0.00 in0.0 mm 0.00 in0.0 mm 0.01 in0.3 mm
06:00 AM 30.8°F-0.7°C 27.9°F-2.3°C 89% 1.0 mph NW1.6 kmh NW -- 29.88 in1011.9 mb 0.00 in0.0 mm 0.00 in0.0 mm 0.01 in0.3 mm
06:05 AM 30.8°F-0.7°C 27.9°F-2.3°C 89% Calm Calm -- 29.88 in1011.9 mb 0.01 in0.3 mm 0.12 in3.0 mm 0.01 in0.3 mm
06:10 AM 30.8°F-0.7°C 27.9°F-2.3°C 89% Calm Calm -- 29.89 in1012.2 mb 0.01 in0.3 mm 0.00 in0.0 mm 0.01 in0.3 mm
06:15 AM 31.0°F-0.6°C 28.1°F-2.2°C 89% 9.0 mph W14.5 kmh W -- 29.91 in1012.9 mb 0.01 in0.3 mm 0.00 in0.0 mm 0.01 in0.3 mm
06:20 AM 31.1°F-0.5°C 28.2°F-2.1°C 89% 12.0 mph WNW19.3 kmh WNW 21.0 mph33.8 kmh 29.98 in1015.2 mb 0.01 in0.3 mm 0.00 in0.0 mm 0.01 in0.3 mm
06:25 AM 31.1°F-0.5°C 28.2°F-2.1°C 89% 5.0 mph W8.0 kmh W 21.0 mph33.8 kmh 29.96 in1014.6 mb 0.01 in0.3 mm 0.00 in0.0 mm 0.01 in0.3 mm
06:30 AM 31.0°F-0.6°C 28.1°F-2.2°C 89% Calm Calm -- 29.94 in1013.9 mb 0.01 in0.3 mm 0.00 in0.0 mm 0.01 in0.3 mm
06:35 AM 30.9°F-0.6°C 28.0°F-2.2°C 89% Calm Calm -- 29.93 in1013.5 mb 0.02 in0.5 mm 0.12 in3.0 mm 0.02 in0.5 mm
06:40 AM 31.0°F-0.6°C 28.1°F-2.2°C 89% Calm Calm -- 29.92 in1013.2 mb 0.02 in0.5 mm 0.00 in0.0 mm 0.02 in0.5 mm
06:45 AM 31.0°F-0.6°C 28.1°F-2.2°C 89% Calm Calm -- 29.92 in1013.2 mb 0.02 in0.5 mm 0.00 in0.0 mm 0.02 in0.5 mm
06:50 AM 31.0°F-0.6°C 28.1°F-2.2°C 89% Calm Calm -- 29.91 in1012.9 mb 0.02 in0.5 mm 0.00 in0.0 mm 0.02 in0.5 mm
06:55 AM 31.1°F-0.5°C 28.2°F-2.1°C 89% Calm Calm -- 29.91 in1012.9 mb 0.02 in0.5 mm 0.00 in0.0 mm 0.02 in0.5 mm
07:00 AM 31.1°F-0.5°C 28.2°F-2.1°C 89% Calm Calm -- 29.91 in1012.9 mb 0.03 in0.8 mm 0.01 in0.3 mm 0.03 in0.8 mm
07:05 AM 31.1°F-0.5°C 28.2°F-2.1°C 89% Calm Calm -- 29.91 in1012.9 mb 0.02 in0.5 mm 0.00 in0.0 mm 0.03 in0.8 mm
07:10 AM 31.2°F-0.4°C 28.3°F-2.1°C 89% Calm Calm -- 29.90 in1012.5 mb 0.02 in0.5 mm 0.00 in0.0 mm 0.03 in0.8 mm
07:15 AM 31.2°F-0.4°C 28.3°F-2.1°C 89% Calm Calm -- 29.90 in1012.5 mb 0.02 in0.5 mm 0.00 in0.0 mm 0.03 in0.8 mm
07:20 AM 31.3°F-0.4°C 28.4°F-2.0°C 89% Calm Calm -- 29.88 in1011.9 mb 0.02 in0.5 mm 0.00 in0.0 mm 0.03 in0.8 mm
07:25 AM 31.3°F-0.4°C 28.4°F-2.0°C 89% Calm Calm -- 29.88 in1011.9 mb 0.03 in0.8 mm 0.12 in3.0 mm 0.04 in1.0 mm
07:30 AM 31.3°F-0.4°C 28.4°F-2.0°C 89% Calm Calm -- 29.87 in1011.5 mb 0.03 in0.8 mm 0.00 in0.0 mm 0.04 in1.0 mm
07:35 AM 31.3°F-0.4°C 28.4°F-2.0°C 89% Calm Calm -- 29.87 in1011.5 mb 0.02 in0.5 mm 0.00 in0.0 mm 0.04 in1.0 mm
07:40 AM 31.3°F-0.4°C 28.4°F-2.0°C 89% Calm Calm -- 29.86 in1011.2 mb 0.03 in0.8 mm 0.12 in3.0 mm 0.05 in1.3 mm
07:45 AM 31.4°F-0.3°C 28.5°F-1.9°C 89% Calm Calm -- 29.85 in1010.8 mb 0.03 in0.8 mm 0.00 in0.0 mm 0.05 in1.3 mm
07:50 AM 31.5°F-0.3°C 28.6°F-1.9°C 89% Calm Calm -- 29.86 in1011.2 mb 0.03 in0.8 mm 0.00 in0.0 mm 0.05 in1.3 mm
07:55 AM 31.6°F-0.2°C 28.7°F-1.8°C 89% Calm Calm -- 29.86 in1011.2 mb 0.03 in0.8 mm 0.00 in0.0 mm 0.05 in1.3 mm
08:00 AM 31.5°F-0.3°C 28.6°F-1.9°C 89% Calm Calm -- 29.86 in1011.2 mb 0.03 in0.8 mm 0.00 in0.0 mm 0.06 in1.5 mm
08:05 AM 31.5°F-0.3°C 28.6°F-1.9°C 89% Calm Calm -- 29.86 in1011.2 mb 0.03 in0.8 mm 0.00 in0.0 mm 0.06 in1.5 mm
08:10 AM 31.5°F-0.3°C 28.6°F-1.9°C 89% Calm Calm -- 29.87 in1011.5 mb 0.03 in0.8 mm 0.00 in0.0 mm 0.06 in1.5 mm
08:15 AM 31.7°F-0.2°C 28.8°F-1.8°C 89% Calm Calm -- 29.88 in1011.9 mb 0.03 in0.8 mm 0.00 in0.0 mm 0.06 in1.5 mm
08:20 AM 31.7°F-0.2°C 28.8°F-1.8°C 89% Calm Calm -- 29.88 in1011.9 mb 0.03 in0.8 mm 0.00 in0.0 mm 0.06 in1.5 mm
08:25 AM 31.8°F-0.1°C 28.9°F-1.7°C 89% Calm Calm -- 29.88 in1011.9 mb 0.03 in0.8 mm 0.00 in0.0 mm 0.07 in1.8 mm
08:30 AM 31.9°F-0.1°C 29.0°F-1.7°C 89% Calm Calm -- 29.88 in1011.9 mb 0.03 in0.8 mm 0.00 in0.0 mm 0.07 in1.8 mm
08:35 AM 31.5°F-0.3°C 31.0°F-0.6°C 98% 1.0 mph S1.6 kmh S -- 29.89 in1012.2 mb 0.03 in0.8 mm 0.00 in0.0 mm 0.07 in1.8 mm
08:40 AM 31.6°F-0.2°C 31.1°F-0.5°C 98% 2.0 mph S3.2 kmh S -- 29.89 in1012.2 mb 0.02 in0.5 mm 0.00 in0.0 mm 0.07 in1.8 mm
08:45 AM 31.6°F-0.2°C 31.1°F-0.5°C 98% Calm Calm -- 29.89 in1012.2 mb 0.02 in0.5 mm 0.00 in0.0 mm 0.07 in1.8 mm
08:50 AM 32.1°F0.1°C 29.2°F-1.6°C 89% Calm Calm 3.0 mph4.8 kmh 29.90 in1012.5 mb 0.03 in0.8 mm 0.12 in3.0 mm 0.08 in2.0 mm
08:55 AM 32.2°F0.1°C 29.3°F-1.5°C 89% Calm Calm 3.0 mph4.8 kmh 29.91 in1012.9 mb 0.03 in0.8 mm 0.00 in0.0 mm 0.08 in2.0 mm
09:00 AM 32.2°F0.1°C 29.3°F-1.5°C 89% Calm Calm -- 29.92 in1013.2 mb 0.02 in0.5 mm 0.00 in0.0 mm 0.08 in2.0 mm
09:05 AM 32.2°F0.1°C 29.3°F-1.5°C 89% Calm Calm -- 29.93 in1013.5 mb 0.03 in0.8 mm 0.12 in3.0 mm 0.09 in2.3 mm
09:10 AM 32.3°F0.2°C 29.4°F-1.4°C 89% Calm Calm -- 29.93 in1013.5 mb 0.03 in0.8 mm 0.00 in0.0 mm 0.09 in2.3 mm
09:15 AM 32.3°F0.2°C 29.4°F-1.4°C 89% Calm Calm -- 29.94 in1013.9 mb 0.03 in0.8 mm 0.00 in0.0 mm 0.09 in2.3 mm
09:20 AM 32.3°F0.2°C 29.4°F-1.4°C 89% Calm Calm -- 29.93 in1013.5 mb 0.03 in0.8 mm 0.00 in0.0 mm 0.09 in2.3 mm
09:25 AM 32.3°F0.2°C 29.4°F-1.4°C 89% Calm Calm -- 29.92 in1013.2 mb 0.02 in0.5 mm 0.00 in0.0 mm 0.09 in2.3 mm
09:30 AM 32.3°F0.2°C 29.4°F-1.4°C 89% Calm Calm -- 29.90 in1012.5 mb 0.03 in0.8 mm 0.12 in3.0 mm 0.10 in2.5 mm
09:35 AM 32.3°F0.2°C 29.4°F-1.4°C 89% Calm Calm -- 29.89 in1012.2 mb 0.03 in0.8 mm 0.00 in0.0 mm 0.10 in2.5 mm
09:40 AM 32.3°F0.2°C 29.4°F-1.4°C 89% Calm Calm -- 29.90 in1012.5 mb 0.03 in0.8 mm 0.00 in0.0 mm 0.10 in2.5 mm
09:45 AM 32.4°F0.2°C 29.5°F-1.4°C 89% Calm Calm -- 29.89 in1012.2 mb 0.03 in0.8 mm 0.00 in0.0 mm 0.10 in2.5 mm
09:50 AM 32.4°F0.2°C 29.5°F-1.4°C 89% Calm Calm -- 29.88 in1011.9 mb 0.03 in0.8 mm 0.00 in0.0 mm 0.11 in2.8 mm
09:55 AM 32.5°F0.3°C 29.6°F-1.3°C 89% Calm Calm -- 29.89 in1012.2 mb 0.03 in0.8 mm 0.00 in0.0 mm 0.11 in2.8 mm
10:00 AM 32.6°F0.3°C 29.7°F-1.3°C 89% Calm Calm -- 29.89 in1012.2 mb 0.03 in0.8 mm 0.00 in0.0 mm 0.11 in2.8 mm
10:05 AM 32.7°F0.4°C 29.8°F-1.2°C 89% Calm Calm -- 29.90 in1012.5 mb 0.02 in0.5 mm 0.00 in0.0 mm 0.11 in2.8 mm
10:10 AM 32.7°F0.4°C 29.8°F-1.2°C 89% Calm Calm -- 29.90 in1012.5 mb 0.03 in0.8 mm 0.12 in3.0 mm 0.12 in3.0 mm
10:15 AM 32.6°F0.3°C 29.7°F-1.3°C 89% Calm Calm -- 29.90 in1012.5 mb 0.03 in0.8 mm 0.00 in0.0 mm 0.12 in3.0 mm
10:20 AM 32.6°F0.3°C 29.7°F-1.3°C 89% Calm Calm -- 29.90 in1012.5 mb 0.03 in0.8 mm 0.00 in0.0 mm 0.12 in3.0 mm
10:25 AM 32.7°F0.4°C 29.8°F-1.2°C 89% Calm Calm -- 29.90 in1012.5 mb 0.03 in0.8 mm 0.00 in0.0 mm 0.12 in3.0 mm
10:30 AM 32.8°F0.4°C 29.9°F-1.2°C 89% Calm Calm -- 29.90 in1012.5 mb 0.03 in0.8 mm 0.00 in0.0 mm 0.13 in3.3 mm
10:35 AM 32.8°F0.4°C 29.9°F-1.2°C 89% Calm Calm -- 29.90 in1012.5 mb 0.03 in0.8 mm 0.00 in0.0 mm 0.13 in3.3 mm
10:40 AM 32.8°F0.4°C 29.9°F-1.2°C 89% Calm Calm -- 29.90 in1012.5 mb 0.03 in0.8 mm 0.00 in0.0 mm 0.13 in3.3 mm
10:45 AM 32.9°F0.5°C 30.0°F-1.1°C 89% Calm Calm -- 29.90 in1012.5 mb 0.05 in1.3 mm 0.24 in6.1 mm 0.15 in3.8 mm
10:50 AM 33.1°F0.6°C 30.2°F-1.0°C 89% Calm Calm -- 29.90 in1012.5 mb 0.05 in1.3 mm 0.00 in0.0 mm 0.16 in4.1 mm
10:55 AM 33.2°F0.7°C 30.3°F-0.9°C 89% Calm Calm -- 29.90 in1012.5 mb 0.06 in1.5 mm 0.12 in3.0 mm 0.17 in4.3 mm
11:00 AM 33.2°F0.7°C 30.3°F-0.9°C 89% Calm Calm -- 29.91 in1012.9 mb 0.07 in1.8 mm 0.01 in0.3 mm 0.18 in4.6 mm
11:05 AM 33.2°F0.7°C 30.3°F-0.9°C 89% Calm Calm -- 29.91 in1012.9 mb 0.08 in2.0 mm 0.12 in3.0 mm 0.19 in4.8 mm
11:10 AM 33.2°F0.7°C 30.3°F-0.9°C 89% Calm Calm -- 29.91 in1012.9 mb 0.07 in1.8 mm 0.00 in0.0 mm 0.19 in4.8 mm
11:15 AM 33.2°F0.7°C 30.3°F-0.9°C 89% Calm Calm -- 29.91 in1012.9 mb 0.08 in2.0 mm 0.12 in3.0 mm 0.20 in5.1 mm
11:20 AM 33.4°F0.8°C 30.5°F-0.8°C 89% Calm Calm -- 29.90 in1012.5 mb 0.09 in2.3 mm 0.12 in3.0 mm 0.21 in5.3 mm
11:25 AM 33.5°F0.8°C 30.6°F-0.8°C 89% Calm Calm -- 29.91 in1012.9 mb 0.10 in2.5 mm 0.12 in3.0 mm 0.22 in5.6 mm
11:30 AM 33.5°F0.8°C 30.6°F-0.8°C 89% Calm Calm -- 29.91 in1012.9 mb 0.09 in2.3 mm 0.00 in0.0 mm 0.22 in5.6 mm
11:35 AM 33.6°F0.9°C 30.7°F-0.7°C 89% Calm Calm -- 29.91 in1012.9 mb 0.10 in2.5 mm 0.12 in3.0 mm 0.23 in5.8 mm
11:40 AM 33.6°F0.9°C 30.7°F-0.7°C 89% Calm Calm -- 29.91 in1012.9 mb 0.10 in2.5 mm 0.00 in0.0 mm 0.23 in5.8 mm
11:45 AM 33.8°F1.0°C 30.9°F-0.6°C 89% Calm Calm -- 29.89 in1012.2 mb 0.09 in2.3 mm 0.00 in0.0 mm 0.24 in6.1 mm
11:50 AM 33.9°F1.1°C 31.0°F-0.6°C 89% Calm Calm -- 29.89 in1012.2 mb 0.08 in2.0 mm 0.00 in0.0 mm 0.24 in6.1 mm
11:55 AM 34.3°F1.3°C 31.4°F-0.3°C 89% Calm Calm -- 29.91 in1012.9 mb 0.07 in1.8 mm 0.00 in0.0 mm 0.24 in6.1 mm
12:00 PM 34.6°F1.4°C 31.7°F-0.2°C 89% 3.0 mph SW4.8 kmh SW -- 29.95 in1014.2 mb 0.07 in1.8 mm 0.00 in0.0 mm 0.25 in6.4 mm
12:05 PM 34.6°F1.4°C 31.7°F-0.2°C 89% 3.0 mph WSW4.8 kmh WSW -- 29.93 in1013.5 mb 0.06 in1.5 mm 0.00 in0.0 mm 0.25 in6.4 mm
12:10 PM 34.5°F1.4°C 31.6°F-0.2°C 89% Calm Calm 6.0 mph9.7 kmh 29.93 in1013.5 mb 0.06 in1.5 mm 0.00 in0.0 mm 0.25 in6.4 mm
12:15 PM 34.5°F1.4°C 31.6°F-0.2°C 89% Calm Calm 6.0 mph9.7 kmh 29.92 in1013.2 mb 0.06 in1.5 mm 0.00 in0.0 mm 0.26 in6.6 mm
12:20 PM 34.6°F1.4°C 31.7°F-0.2°C 89% Calm Calm -- 29.92 in1013.2 mb 0.05 in1.3 mm 0.00 in0.0 mm 0.26 in6.6 mm
12:25 PM 34.6°F1.4°C 31.7°F-0.2°C 89% Calm Calm -- 29.88 in1011.9 mb 0.05 in1.3 mm 0.00 in0.0 mm 0.27 in6.9 mm
12:30 PM 34.7°F1.5°C 31.8°F-0.1°C 89% 5.0 mph WNW8.0 kmh WNW -- 29.91 in1012.9 mb 0.05 in1.3 mm 0.00 in0.0 mm 0.27 in6.9 mm
12:35 PM 34.9°F1.6°C 32.0°F0.0°C 89% 6.0 mph W9.7 kmh W -- 29.94 in1013.9 mb 0.04 in1.0 mm 0.00 in0.0 mm 0.27 in6.9 mm
12:40 PM 35.0°F1.7°C 32.1°F0.1°C 89% 4.0 mph W6.4 kmh W -- 29.91 in1012.9 mb 0.05 in1.3 mm 0.12 in3.0 mm 0.28 in7.1 mm
12:45 PM 35.0°F1.7°C 32.1°F0.1°C 89% 6.0 mph NW9.7 kmh NW -- 29.91 in1012.9 mb 0.04 in1.0 mm 0.00 in0.0 mm 0.28 in7.1 mm
12:50 PM 35.0°F1.7°C 32.1°F0.1°C 89% 1.0 mph W1.6 kmh W -- 29.90 in1012.5 mb 0.05 in1.3 mm 0.12 in3.0 mm 0.29 in7.4 mm
12:55 PM 35.1°F1.7°C 32.2°F0.1°C 89% 5.0 mph W8.0 kmh W -- 29.90 in1012.5 mb 0.05 in1.3 mm 0.00 in0.0 mm 0.29 in7.4 mm
01:00 PM 35.3°F1.8°C 32.4°F0.2°C 89% 1.0 mph WSW1.6 kmh WSW 6.0 mph9.7 kmh 29.91 in1012.9 mb 0.04 in1.0 mm 0.00 in0.0 mm 0.29 in7.4 mm
01:05 PM 35.4°F1.9°C 32.5°F0.3°C 89% Calm Calm 6.0 mph9.7 kmh 29.93 in1013.5 mb 0.05 in1.3 mm 0.12 in3.0 mm 0.30 in7.6 mm
01:10 PM 35.3°F1.8°C 32.4°F0.2°C 89% 4.0 mph SW6.4 kmh SW -- 29.93 in1013.5 mb 0.05 in1.3 mm 0.00 in0.0 mm 0.30 in7.6 mm
01:15 PM 35.3°F1.8°C 32.4°F0.2°C 89% 4.0 mph WSW6.4 kmh WSW -- 29.94 in1013.9 mb 0.04 in1.0 mm 0.00 in0.0 mm 0.30 in7.6 mm
01:20 PM 35.4°F1.9°C 32.5°F0.3°C 89% 10.0 mph SW16.1 kmh SW -- 29.96 in1014.6 mb 0.05 in1.3 mm 0.12 in3.0 mm 0.31 in7.9 mm
01:25 PM 35.4°F1.9°C 32.5°F0.3°C 89% 1.0 mph WSW1.6 kmh WSW -- 29.94 in1013.9 mb 0.04 in1.0 mm 0.00 in0.0 mm 0.31 in7.9 mm
01:30 PM 35.5°F1.9°C 32.6°F0.3°C 89% 2.0 mph WSW3.2 kmh WSW -- 29.93 in1013.5 mb 0.04 in1.0 mm 0.00 in0.0 mm 0.31 in7.9 mm
01:35 PM 35.6°F2.0°C 32.7°F0.4°C 89% Calm Calm -- 29.92 in1013.2 mb 0.04 in1.0 mm 0.00 in0.0 mm 0.31 in7.9 mm
01:40 PM 35.7°F2.1°C 32.8°F0.4°C 89% Calm Calm -- 29.93 in1013.5 mb 0.04 in1.0 mm 0.00 in0.0 mm 0.32 in8.1 mm
01:45 PM 35.8°F2.1°C 32.9°F0.5°C 89% Calm Calm -- 29.93 in1013.5 mb 0.04 in1.0 mm 0.00 in0.0 mm 0.32 in8.1 mm
01:50 PM 35.9°F2.2°C 33.0°F0.6°C 89% Calm Calm 1.0 mph1.6 kmh 29.93 in1013.5 mb 0.03 in0.8 mm 0.00 in0.0 mm 0.32 in8.1 mm
01:55 PM 35.8°F2.1°C 32.9°F0.5°C 89% Calm Calm 1.0 mph1.6 kmh 29.92 in1013.2 mb 0.03 in0.8 mm 0.00 in0.0 mm 0.32 in8.1 mm
02:00 PM 35.9°F2.2°C 33.0°F0.6°C 89% Calm Calm -- 29.93 in1013.5 mb 0.04 in1.0 mm 0.01 in0.3 mm 0.33 in8.4 mm
02:05 PM 35.9°F2.2°C 33.0°F0.6°C 89% Calm Calm -- 29.94 in1013.9 mb 0.03 in0.8 mm 0.00 in0.0 mm 0.33 in8.4 mm
02:10 PM 35.9°F2.2°C 33.0°F0.6°C 89% Calm Calm -- 29.93 in1013.5 mb 0.03 in0.8 mm 0.00 in0.0 mm 0.33 in8.4 mm
02:15 PM 35.9°F2.2°C 33.0°F0.6°C 89% Calm Calm -- 29.93 in1013.5 mb 0.03 in0.8 mm 0.00 in0.0 mm 0.33 in8.4 mm
02:20 PM 35.8°F2.1°C 32.9°F0.5°C 89% Calm Calm -- 29.93 in1013.5 mb 0.03 in0.8 mm 0.00 in0.0 mm 0.34 in8.6 mm
02:25 PM 35.8°F2.1°C 32.9°F0.5°C 89% Calm Calm -- 29.93 in1013.5 mb 0.03 in0.8 mm 0.00 in0.0 mm 0.34 in8.6 mm
02:30 PM 35.9°F2.2°C 33.0°F0.6°C 89% Calm Calm -- 29.93 in1013.5 mb 0.03 in0.8 mm 0.00 in0.0 mm 0.34 in8.6 mm
02:35 PM 35.9°F2.2°C 33.0°F0.6°C 89% Calm Calm -- 29.94 in1013.9 mb 0.03 in0.8 mm 0.00 in0.0 mm 0.34 in8.6 mm
02:40 PM 35.8°F2.1°C 32.9°F0.5°C 89% 6.0 mph SW9.7 kmh SW 9.0 mph14.5 kmh 29.94 in1013.9 mb 0.03 in0.8 mm 0.00 in0.0 mm 0.35 in8.9 mm
02:45 PM 35.8°F2.1°C 32.9°F0.5°C 89% 2.0 mph W3.2 kmh W 9.0 mph14.5 kmh 29.95 in1014.2 mb 0.03 in0.8 mm 0.00 in0.0 mm 0.35 in8.9 mm
02:50 PM 35.8°F2.1°C 32.9°F0.5°C 89% 4.0 mph WSW6.4 kmh WSW -- 29.95 in1014.2 mb 0.03 in0.8 mm 0.00 in0.0 mm 0.35 in8.9 mm
02:55 PM 35.6°F2.0°C 32.7°F0.4°C 89% 7.0 mph W11.3 kmh W -- 29.95 in1014.2 mb 0.03 in0.8 mm 0.00 in0.0 mm 0.35 in8.9 mm
03:00 PM 35.5°F1.9°C 32.6°F0.3°C 89% 3.0 mph WSW4.8 kmh WSW -- 29.95 in1014.2 mb 0.02 in0.5 mm 0.00 in0.0 mm 0.35 in8.9 mm
03:05 PM 35.4°F1.9°C 32.5°F0.3°C 89% 5.0 mph W8.0 kmh W -- 29.95 in1014.2 mb 0.02 in0.5 mm 0.00 in0.0 mm 0.35 in8.9 mm
03:10 PM 35.4°F1.9°C 32.5°F0.3°C 89% 8.0 mph WSW12.9 kmh WSW -- 29.95 in1014.2 mb 0.02 in0.5 mm 0.00 in0.0 mm 0.35 in8.9 mm
03:15 PM 35.3°F1.8°C 32.4°F0.2°C 89% 2.0 mph W3.2 kmh W -- 29.96 in1014.6 mb 0.02 in0.5 mm 0.00 in0.0 mm 0.35 in8.9 mm
03:20 PM 35.3°F1.8°C 32.4°F0.2°C 89% 4.0 mph WNW6.4 kmh WNW -- 29.97 in1014.9 mb 0.01 in0.3 mm 0.00 in0.0 mm 0.35 in8.9 mm
03:25 PM 35.3°F1.8°C 32.4°F0.2°C 89% 6.0 mph WSW9.7 kmh WSW -- 29.96 in1014.6 mb 0.01 in0.3 mm 0.00 in0.0 mm 0.35 in8.9 mm
03:30 PM 35.2°F1.8°C 32.3°F0.2°C 89% 7.0 mph WNW11.3 kmh WNW 11.0 mph17.7 kmh 29.97 in1014.9 mb 0.01 in0.3 mm 0.00 in0.0 mm 0.35 in8.9 mm
03:35 PM 35.1°F1.7°C 32.2°F0.1°C 89% 4.0 mph W6.4 kmh W 11.0 mph17.7 kmh 29.96 in1014.6 mb 0.01 in0.3 mm 0.00 in0.0 mm 0.35 in8.9 mm
03:40 PM 35.1°F1.7°C 32.2°F0.1°C 89% 4.0 mph W6.4 kmh W -- 29.96 in1014.6 mb 0.00 in0.0 mm 0.00 in0.0 mm 0.35 in8.9 mm
03:45 PM 35.0°F1.7°C 32.1°F0.1°C 89% 8.0 mph W12.9 kmh W -- 29.96 in1014.6 mb 0.00 in0.0 mm 0.00 in0.0 mm 0.35 in8.9 mm
03:50 PM 34.9°F1.6°C 32.0°F0.0°C 89% 7.0 mph W11.3 kmh W -- 29.95 in1014.2 mb 0.00 in0.0 mm 0.00 in0.0 mm 0.35 in8.9 mm
03:55 PM 34.9°F1.6°C 32.0°F0.0°C 89% 4.0 mph WNW6.4 kmh WNW -- 29.96 in1014.6 mb 0.00 in0.0 mm 0.00 in0.0 mm 0.35 in8.9 mm
04:00 PM 34.8°F1.6°C 31.6°F-0.2°C 88% 5.0 mph NW8.0 kmh NW -- 29.97 in1014.9 mb 0.00 in0.0 mm 0.00 in0.0 mm 0.35 in8.9 mm
04:05 PM 34.6°F1.4°C 31.7°F-0.2°C 89% 6.0 mph WNW9.7 kmh WNW -- 29.97 in1014.9 mb 0.00 in0.0 mm 0.00 in0.0 mm 0.35 in8.9 mm
04:10 PM 34.6°F1.4°C 31.7°F-0.2°C 89% 7.0 mph W11.3 kmh W -- 29.96 in1014.6 mb 0.00 in0.0 mm 0.00 in0.0 mm 0.35 in8.9 mm
04:15 PM 34.5°F1.4°C 31.6°F-0.2°C 89% 4.0 mph WNW6.4 kmh WNW -- 29.96 in1014.6 mb 0.00 in0.0 mm 0.00 in0.0 mm 0.35 in8.9 mm
04:20 PM 34.6°F1.4°C 31.7°F-0.2°C 89% 2.0 mph W3.2 kmh W 10.0 mph16.1 kmh 29.97 in1014.9 mb 0.00 in0.0 mm 0.00 in0.0 mm 0.35 in8.9 mm
04:25 PM 34.7°F1.5°C 31.8°F-0.1°C 89% 4.0 mph WSW6.4 kmh WSW 10.0 mph16.1 kmh 29.97 in1014.9 mb 0.00 in0.0 mm 0.00 in0.0 mm 0.35 in8.9 mm
04:30 PM 34.7°F1.5°C 31.5°F-0.3°C 88% 4.0 mph W6.4 kmh W -- 29.97 in1014.9 mb 0.00 in0.0 mm 0.00 in0.0 mm 0.35 in8.9 mm
04:35 PM 34.8°F1.6°C 31.6°F-0.2°C 88% 6.0 mph W9.7 kmh W -- 29.97 in1014.9 mb 0.00 in0.0 mm 0.00 in0.0 mm 0.35 in8.9 mm
04:40 PM 34.8°F1.6°C 31.6°F-0.2°C 88% 2.0 mph WSW3.2 kmh WSW -- 29.97 in1014.9 mb 0.00 in0.0 mm 0.00 in0.0 mm 0.35 in8.9 mm
04:45 PM 34.9°F1.6°C 31.7°F-0.2°C 88% 3.0 mph W4.8 kmh W -- 29.98 in1015.2 mb 0.00 in0.0 mm 0.00 in0.0 mm 0.35 in8.9 mm
04:50 PM 34.9°F1.6°C 31.7°F-0.2°C 88% 6.0 mph W9.7 kmh W -- 29.98 in1015.2 mb 0.00 in0.0 mm 0.00 in0.0 mm 0.35 in8.9 mm
04:55 PM 34.9°F1.6°C 31.7°F-0.2°C 88% 5.0 mph W8.0 kmh W -- 29.98 in1015.2 mb 0.00 in0.0 mm 0.00 in0.0 mm 0.35 in8.9 mm
05:00 PM 34.9°F1.6°C 31.7°F-0.2°C 88% 7.0 mph W11.3 kmh W -- 29.98 in1015.2 mb 0.00 in0.0 mm 0.00 in0.0 mm 0.35 in8.9 mm
05:05 PM 34.9°F1.6°C 31.7°F-0.2°C 88% 5.0 mph WSW8.0 kmh WSW -- 29.98 in1015.2 mb 0.00 in0.0 mm 0.00 in0.0 mm 0.35 in8.9 mm
05:10 PM 34.8°F1.6°C 31.6°F-0.2°C 88% 4.0 mph W6.4 kmh W 10.0 mph16.1 kmh 29.99 in1015.6 mb 0.00 in0.0 mm 0.00 in0.0 mm 0.35 in8.9 mm
05:15 PM 34.8°F1.6°C 31.6°F-0.2°C 88% 3.0 mph WNW4.8 kmh WNW 10.0 mph16.1 kmh 30.00 in1015.9 mb 0.00 in0.0 mm 0.00 in0.0 mm 0.35 in8.9 mm
05:20 PM 34.8°F1.6°C 31.6°F-0.2°C 88% 6.0 mph WNW9.7 kmh WNW -- 30.00 in1015.9 mb 0.00 in0.0 mm 0.00 in0.0 mm 0.35 in8.9 mm
05:25 PM 34.8°F1.6°C 31.6°F-0.2°C 88% 7.0 mph WNW11.3 kmh WNW -- 30.01 in1016.3 mb 0.00 in0.0 mm 0.00 in0.0 mm 0.35 in8.9 mm
05:30 PM 34.7°F1.5°C 31.8°F-0.1°C 89% 8.0 mph W12.9 kmh W -- 30.01 in1016.3 mb 0.00 in0.0 mm 0.00 in0.0 mm 0.35 in8.9 mm
05:35 PM 34.2°F1.2°C 31.3°F-0.4°C 89% 6.0 mph W9.7 kmh W -- 30.01 in1016.3 mb 0.00 in0.0 mm 0.00 in0.0 mm 0.35 in8.9 mm
05:40 PM 33.8°F1.0°C 30.9°F-0.6°C 89% 7.0 mph WNW11.3 kmh WNW -- 30.02 in1016.6 mb 0.00 in0.0 mm 0.00 in0.0 mm 0.35 in8.9 mm
05:45 PM 33.7°F0.9°C 30.8°F-0.7°C 89% 11.0 mph NW17.7 kmh NW -- 30.03 in1016.9 mb 0.00 in0.0 mm 0.00 in0.0 mm 0.35 in8.9 mm
05:50 PM 33.6°F0.9°C 30.4°F-0.9°C 88% 14.0 mph W22.5 kmh W -- 30.04 in1017.3 mb 0.00 in0.0 mm 0.00 in0.0 mm 0.35 in8.9 mm
05:55 PM 33.6°F0.9°C 30.4°F-0.9°C 88% 8.0 mph W12.9 kmh W -- 30.04 in1017.3 mb 0.00 in0.0 mm 0.00 in0.0 mm 0.35 in8.9 mm
06:00 PM 33.5°F0.8°C 30.3°F-0.9°C 88% 10.0 mph WSW16.1 kmh WSW 15.0 mph24.1 kmh 30.05 in1017.6 mb 0.00 in0.0 mm 0.00 in0.0 mm 0.35 in8.9 mm
06:05 PM 33.3°F0.7°C 30.1°F-1.1°C 88% 6.0 mph NW9.7 kmh NW 15.0 mph24.1 kmh 30.06 in1017.9 mb 0.00 in0.0 mm 0.00 in0.0 mm 0.35 in8.9 mm
06:10 PM 33.1°F0.6°C 29.9°F-1.2°C 88% 9.0 mph W14.5 kmh W -- 30.06 in1017.9 mb 0.00 in0.0 mm 0.00 in0.0 mm 0.35 in8.9 mm
06:15 PM 32.8°F0.4°C 29.6°F-1.3°C 88% 7.0 mph WNW11.3 kmh WNW -- 30.07 in1018.3 mb 0.00 in0.0 mm 0.00 in0.0 mm 0.35 in8.9 mm
06:20 PM 32.6°F0.3°C 29.2°F-1.6°C 87% 8.0 mph WSW12.9 kmh WSW -- 30.08 in1018.6 mb 0.00 in0.0 mm 0.00 in0.0 mm 0.35 in8.9 mm
06:25 PM 32.3°F0.2°C 28.9°F-1.7°C 87% 6.0 mph WNW9.7 kmh WNW -- 30.08 in1018.6 mb 0.00 in0.0 mm 0.00 in0.0 mm 0.35 in8.9 mm
06:30 PM 32.0°F0.0°C 28.6°F-1.9°C 87% 13.0 mph NW20.9 kmh NW -- 30.08 in1018.6 mb 0.00 in0.0 mm 0.00 in0.0 mm 0.35 in8.9 mm
06:35 PM 31.6°F-0.2°C 28.2°F-2.1°C 87% 9.0 mph W14.5 kmh W -- 30.09 in1019.0 mb 0.00 in0.0 mm 0.00 in0.0 mm 0.35 in8.9 mm
06:40 PM 31.3°F-0.4°C 27.9°F-2.3°C 87% 12.0 mph W19.3 kmh W -- 30.10 in1019.3 mb 0.00 in0.0 mm 0.00 in0.0 mm 0.35 in8.9 mm
06:45 PM 31.1°F-0.5°C 27.7°F-2.4°C 87% 9.0 mph NW14.5 kmh NW -- 30.10 in1019.3 mb 0.00 in0.0 mm 0.00 in0.0 mm 0.35 in8.9 mm
06:50 PM 31.0°F-0.6°C 27.6°F-2.4°C 87% 4.0 mph W6.4 kmh W 18.0 mph29.0 kmh 30.11 in1019.6 mb 0.00 in0.0 mm 0.00 in0.0 mm 0.35 in8.9 mm
06:55 PM 30.9°F-0.6°C 27.8°F-2.3°C 88% 10.0 mph WNW16.1 kmh WNW 18.0 mph29.0 kmh 30.11 in1019.6 mb 0.00 in0.0 mm 0.00 in0.0 mm 0.35 in8.9 mm
07:00 PM 30.8°F-0.7°C 27.4°F-2.6°C 87% 11.0 mph NW17.7 kmh NW -- 30.11 in1019.6 mb 0.00 in0.0 mm 0.00 in0.0 mm 0.35 in8.9 mm
07:05 PM 30.6°F-0.8°C 27.2°F-2.7°C 87% 8.0 mph W12.9 kmh W -- 30.12 in1020.0 mb 0.00 in0.0 mm 0.00 in0.0 mm 0.35 in8.9 mm
07:10 PM 30.3°F-0.9°C 26.9°F-2.8°C 87% 9.0 mph WNW14.5 kmh WNW -- 30.12 in1020.0 mb 0.00 in0.0 mm 0.00 in0.0 mm 0.35 in8.9 mm
07:15 PM 30.1°F-1.1°C 26.7°F-2.9°C 87% 8.0 mph WNW12.9 kmh WNW -- 30.13 in1020.3 mb 0.00 in0.0 mm 0.00 in0.0 mm 0.35 in8.9 mm
07:20 PM 29.7°F-1.3°C 26.0°F-3.3°C 86% 10.0 mph W16.1 kmh W -- 30.14 in1020.7 mb 0.00 in0.0 mm 0.00 in0.0 mm 0.35 in8.9 mm
07:25 PM 29.5°F-1.4°C 25.8°F-3.4°C 86% 10.0 mph WNW16.1 kmh WNW -- 30.14 in1020.7 mb 0.00 in0.0 mm 0.00 in0.0 mm 0.35 in8.9 mm
07:30 PM 29.5°F-1.4°C 25.8°F-3.4°C 86% 10.0 mph WNW16.1 kmh WNW -- 30.15 in1021.0 mb 0.00 in0.0 mm 0.00 in0.0 mm 0.35 in8.9 mm
07:35 PM 29.3°F-1.5°C 25.6°F-3.6°C 86% 9.0 mph W14.5 kmh W -- 30.15 in1021.0 mb 0.00 in0.0 mm 0.00 in0.0 mm 0.35 in8.9 mm
07:40 PM 29.2°F-1.6°C 25.3°F-3.7°C 85% 11.0 mph NW17.7 kmh NW 18.0 mph29.0 kmh 30.15 in1021.0 mb 0.00 in0.0 mm 0.00 in0.0 mm 0.35 in8.9 mm
07:45 PM 29.1°F-1.6°C 25.2°F-3.8°C 85% 5.0 mph NW8.0 kmh NW 18.0 mph29.0 kmh 30.16 in1021.3 mb 0.00 in0.0 mm 0.00 in0.0 mm 0.35 in8.9 mm
07:50 PM 29.0°F-1.7°C 25.1°F-3.8°C 85% 6.0 mph W9.7 kmh W -- 30.17 in1021.7 mb 0.00 in0.0 mm 0.00 in0.0 mm 0.35 in8.9 mm
07:55 PM 28.9°F-1.7°C 25.0°F-3.9°C 85% 9.0 mph W14.5 kmh W -- 30.17 in1021.7 mb 0.00 in0.0 mm 0.00 in0.0 mm 0.35 in8.9 mm
08:00 PM 28.8°F-1.8°C 24.9°F-3.9°C 85% 11.0 mph NW17.7 kmh NW -- 30.17 in1021.7 mb 0.00 in0.0 mm 0.00 in0.0 mm 0.35 in8.9 mm
08:05 PM 28.8°F-1.8°C 24.6°F-4.1°C 84% 7.0 mph NNW11.3 kmh NNW -- 30.17 in1021.7 mb 0.00 in0.0 mm 0.00 in0.0 mm 0.35 in8.9 mm
08:10 PM 28.7°F-1.8°C 24.5°F-4.2°C 84% 10.0 mph W16.1 kmh W -- 30.17 in1021.7 mb 0.00 in0.0 mm 0.00 in0.0 mm 0.35 in8.9 mm
08:15 PM 28.7°F-1.8°C 24.5°F-4.2°C 84% 10.0 mph WNW16.1 kmh WNW -- 30.17 in1021.7 mb 0.00 in0.0 mm 0.00 in0.0 mm 0.35 in8.9 mm
08:20 PM 28.5°F-1.9°C 24.0°F-4.4°C 83% 6.0 mph NW9.7 kmh NW -- 30.17 in1021.7 mb 0.00 in0.0 mm 0.00 in0.0 mm 0.35 in8.9 mm
08:25 PM 28.5°F-1.9°C 24.0°F-4.4°C 83% 7.0 mph W11.3 kmh W -- 30.18 in1022.0 mb 0.00 in0.0 mm 0.00 in0.0 mm 0.35 in8.9 mm
08:30 PM 28.4°F-2.0°C 23.9°F-4.5°C 83% 6.0 mph NW9.7 kmh NW 14.0 mph22.5 kmh 30.18 in1022.0 mb 0.00 in0.0 mm 0.00 in0.0 mm 0.35 in8.9 mm
08:35 PM 28.4°F-2.0°C 23.9°F-4.5°C 83% 8.0 mph WNW12.9 kmh WNW 14.0 mph22.5 kmh 30.18 in1022.0 mb 0.00 in0.0 mm 0.00 in0.0 mm 0.35 in8.9 mm
08:40 PM 28.2°F-2.1°C 23.7°F-4.6°C 83% 8.0 mph WNW12.9 kmh WNW -- 30.17 in1021.7 mb 0.00 in0.0 mm 0.00 in0.0 mm 0.35 in8.9 mm
08:45 PM 28.0°F-2.2°C 23.8°F-4.6°C 84% 7.0 mph W11.3 kmh W -- 30.18 in1022.0 mb 0.00 in0.0 mm 0.00 in0.0 mm 0.35 in8.9 mm
08:50 PM 28.0°F-2.2°C 23.5°F-4.7°C 83% 6.0 mph NW9.7 kmh NW -- 30.18 in1022.0 mb 0.00 in0.0 mm 0.00 in0.0 mm 0.35 in8.9 mm
08:55 PM 27.8°F-2.3°C 23.6°F-4.7°C 84% 5.0 mph NW8.0 kmh NW -- 30.17 in1021.7 mb 0.00 in0.0 mm 0.00 in0.0 mm 0.35 in8.9 mm
09:00 PM 27.8°F-2.3°C 23.6°F-4.7°C 84% 9.0 mph WNW14.5 kmh WNW -- 30.19 in1022.4 mb 0.00 in0.0 mm 0.00 in0.0 mm 0.35 in8.9 mm
09:05 PM 27.8°F-2.3°C 23.6°F-4.7°C 84% 10.0 mph W16.1 kmh W -- 30.18 in1022.0 mb 0.00 in0.0 mm 0.00 in0.0 mm 0.35 in8.9 mm
09:10 PM 27.7°F-2.4°C 23.5°F-4.7°C 84% 5.0 mph W8.0 kmh W -- 30.19 in1022.4 mb 0.00 in0.0 mm 0.00 in0.0 mm 0.35 in8.9 mm
09:15 PM 27.7°F-2.4°C 23.5°F-4.7°C 84% 9.0 mph WNW14.5 kmh WNW -- 30.18 in1022.0 mb 0.00 in0.0 mm 0.00 in0.0 mm 0.35 in8.9 mm
09:20 PM 27.6°F-2.4°C 23.4°F-4.8°C 84% 10.0 mph NW16.1 kmh NW 16.0 mph25.7 kmh 30.18 in1022.0 mb 0.00 in0.0 mm 0.00 in0.0 mm 0.35 in8.9 mm
09:25 PM 27.5°F-2.5°C 23.0°F-5.0°C 83% 12.0 mph WNW19.3 kmh WNW 16.0 mph25.7 kmh 30.19 in1022.4 mb 0.00 in0.0 mm 0.00 in0.0 mm 0.35 in8.9 mm
09:30 PM 27.5°F-2.5°C 23.0°F-5.0°C 83% 5.0 mph WNW8.0 kmh WNW -- 30.19 in1022.4 mb 0.00 in0.0 mm 0.00 in0.0 mm 0.35 in8.9 mm
09:35 PM 27.4°F-2.6°C 22.6°F-5.2°C 82% 5.0 mph NW8.0 kmh NW -- 30.20 in1022.7 mb 0.00 in0.0 mm 0.00 in0.0 mm 0.35 in8.9 mm
09:40 PM 27.4°F-2.6°C 22.6°F-5.2°C 82% 11.0 mph NW17.7 kmh NW -- 30.21 in1023.0 mb 0.00 in0.0 mm 0.00 in0.0 mm 0.35 in8.9 mm
09:45 PM 27.4°F-2.6°C 22.6°F-5.2°C 82% 8.0 mph NW12.9 kmh NW -- 30.21 in1023.0 mb 0.00 in0.0 mm 0.00 in0.0 mm 0.35 in8.9 mm
09:50 PM 27.2°F-2.7°C 22.7°F-5.2°C 83% 11.0 mph NW17.7 kmh NW -- 30.21 in1023.0 mb 0.00 in0.0 mm 0.00 in0.0 mm 0.35 in8.9 mm
09:55 PM 26.9°F-2.8°C 22.4°F-5.3°C 83% 11.0 mph WNW17.7 kmh WNW -- 30.21 in1023.0 mb 0.00 in0.0 mm 0.00 in0.0 mm 0.35 in8.9 mm
10:00 PM 26.8°F-2.9°C 22.3°F-5.4°C 83% 9.0 mph WNW14.5 kmh WNW -- 30.22 in1023.4 mb 0.00 in0.0 mm 0.00 in0.0 mm 0.35 in8.9 mm
10:05 PM 26.7°F-2.9°C 22.2°F-5.4°C 83% 8.0 mph NW12.9 kmh NW -- 30.22 in1023.4 mb 0.00 in0.0 mm 0.00 in0.0 mm 0.35 in8.9 mm
10:10 PM 26.7°F-2.9°C 22.2°F-5.4°C 83% 9.0 mph WNW14.5 kmh WNW 18.0 mph29.0 kmh 30.23 in1023.7 mb 0.00 in0.0 mm 0.00 in0.0 mm 0.35 in8.9 mm
10:15 PM 26.7°F-2.9°C 22.5°F-5.3°C 84% 5.0 mph NW8.0 kmh NW 18.0 mph29.0 kmh 30.23 in1023.7 mb 0.00 in0.0 mm 0.00 in0.0 mm 0.35 in8.9 mm
10:20 PM 26.8°F-2.9°C 22.6°F-5.2°C 84% 11.0 mph WSW17.7 kmh WSW -- 30.23 in1023.7 mb 0.00 in0.0 mm 0.00 in0.0 mm 0.35 in8.9 mm
10:25 PM 26.7°F-2.9°C 22.5°F-5.3°C 84% 5.0 mph W8.0 kmh W -- 30.24 in1024.0 mb 0.00 in0.0 mm 0.00 in0.0 mm 0.35 in8.9 mm
10:30 PM 26.7°F-2.9°C 22.5°F-5.3°C 84% 9.0 mph NW14.5 kmh NW -- 30.24 in1024.0 mb 0.00 in0.0 mm 0.00 in0.0 mm 0.35 in8.9 mm
10:35 PM 26.6°F-3.0°C 22.4°F-5.3°C 84% 6.0 mph NNW9.7 kmh NNW -- 30.24 in1024.0 mb 0.00 in0.0 mm 0.00 in0.0 mm 0.35 in8.9 mm
10:40 PM 26.6°F-3.0°C 22.4°F-5.3°C 84% 4.0 mph NW6.4 kmh NW -- 30.24 in1024.0 mb 0.00 in0.0 mm 0.00 in0.0 mm 0.35 in8.9 mm
10:45 PM 26.6°F-3.0°C 22.4°F-5.3°C 84% 7.0 mph W11.3 kmh W -- 30.24 in1024.0 mb 0.00 in0.0 mm 0.00 in0.0 mm 0.35 in8.9 mm
10:50 PM 26.5°F-3.1°C 22.3°F-5.4°C 84% 5.0 mph WNW8.0 kmh WNW -- 30.25 in1024.4 mb 0.00 in0.0 mm 0.00 in0.0 mm 0.35 in8.9 mm
10:55 PM 26.4°F-3.1°C 22.2°F-5.4°C 84% 7.0 mph WNW11.3 kmh WNW -- 30.25 in1024.4 mb 0.00 in0.0 mm 0.00 in0.0 mm 0.35 in8.9 mm
11:00 PM 26.2°F-3.2°C 22.3°F-5.4°C 85% 10.0 mph WNW16.1 kmh WNW 14.0 mph22.5 kmh 30.25 in1024.4 mb 0.00 in0.0 mm 0.00 in0.0 mm 0.35 in8.9 mm
11:05 PM 26.1°F-3.3°C 22.2°F-5.4°C 85% 9.0 mph NW14.5 kmh NW 14.0 mph22.5 kmh 30.25 in1024.4 mb 0.00 in0.0 mm 0.00 in0.0 mm 0.35 in8.9 mm
11:10 PM 25.9°F-3.4°C 22.0°F-5.6°C 85% 11.0 mph NW17.7 kmh NW -- 30.26 in1024.7 mb 0.00 in0.0 mm 0.00 in0.0 mm 0.35 in8.9 mm
11:15 PM 25.6°F-3.6°C 21.7°F-5.7°C 85% 9.0 mph WNW14.5 kmh WNW -- 30.25 in1024.4 mb 0.00 in0.0 mm 0.00 in0.0 mm 0.35 in8.9 mm
11:20 PM 25.6°F-3.6°C 22.0°F-5.6°C 86% 6.0 mph NNW9.7 kmh NNW -- 30.25 in1024.4 mb 0.00 in0.0 mm 0.00 in0.0 mm 0.35 in8.9 mm
11:25 PM 25.5°F-3.6°C 21.6°F-5.8°C 85% 10.0 mph NW16.1 kmh NW -- 30.26 in1024.7 mb 0.00 in0.0 mm 0.00 in0.0 mm 0.35 in8.9 mm
11:30 PM 25.3°F-3.7°C 20.9°F-6.2°C 83% 10.0 mph NW16.1 kmh NW -- 30.27 in1025.1 mb 0.00 in0.0 mm 0.00 in0.0 mm 0.35 in8.9 mm
11:35 PM 25.2°F-3.8°C 20.5°F-6.4°C 82% 13.0 mph NW20.9 kmh NW -- 30.27 in1025.1 mb 0.00 in0.0 mm 0.00 in0.0 mm 0.35 in8.9 mm
11:40 PM 25.0°F-3.9°C 20.0°F-6.7°C 81% 10.0 mph WNW16.1 kmh WNW -- 30.27 in1025.1 mb 0.00 in0.0 mm 0.00 in0.0 mm 0.35 in8.9 mm
11:45 PM 24.9°F-3.9°C 19.9°F-6.7°C 81% 8.0 mph WNW12.9 kmh WNW -- 30.28 in1025.4 mb 0.00 in0.0 mm 0.00 in0.0 mm 0.35 in8.9 mm
11:50 PM 24.7°F-4.1°C 19.7°F-6.8°C 81% 12.0 mph NW19.3 kmh NW 19.0 mph30.6 kmh 30.29 in1025.7 mb 0.00 in0.0 mm 0.00 in0.0 mm 0.35 in8.9 mm
11:55 PM 24.7°F-4.1°C 19.7°F-6.8°C 81% 14.0 mph NW22.5 kmh NW 19.0 mph30.6 kmh 30.29 in1025.7 mb 0.00 in0.0 mm 0.00 in0.0 mm 0.35 in8.9 mm